sensor_id;sensor_type;location;lat;lon;timestamp;P1;durP1;ratioP1;P2;durP2;ratioP2
32146;SDS011;32190;49.112;8.598;2022-08-19T00:03:40;3.10;;;2.88;;
32146;SDS011;32190;49.112;8.598;2022-08-19T00:09:36;4.45;;;4.05;;
32146;SDS011;32190;49.112;8.598;2022-08-19T00:15:32;4.43;;;4.05;;
32146;SDS011;32190;49.112;8.598;2022-08-19T00:21:39;3.00;;;2.80;;
32146;SDS011;32190;49.112;8.598;2022-08-19T00:27:38;3.47;;;2.88;;
32146;SDS011;32190;49.112;8.598;2022-08-19T00:33:39;3.30;;;3.10;;
32146;SDS011;32190;49.112;8.598;2022-08-19T00:39:39;3.25;;;2.95;;
32146;SDS011;32190;49.112;8.598;2022-08-19T00:45:32;3.53;;;3.22;;
32146;SDS011;32190;49.112;8.598;2022-08-19T00:51:35;4.35;;;4.05;;
32146;SDS011;32190;49.112;8.598;2022-08-19T01:04:02;4.43;;;4.03;;
32146;SDS011;32190;49.112;8.598;2022-08-19T01:09:59;4.85;;;4.45;;
32146;SDS011;32190;49.112;8.598;2022-08-19T01:15:56;4.25;;;3.92;;
32146;SDS011;32190;49.112;8.598;2022-08-19T01:28:17;3.85;;;3.50;;
32146;SDS011;32190;49.112;8.598;2022-08-19T01:34:12;4.70;;;3.95;;
32146;SDS011;32190;49.112;8.598;2022-08-19T01:40:03;4.43;;;4.03;;
32146;SDS011;32190;49.112;8.598;2022-08-19T01:45:59;4.50;;;4.13;;
32146;SDS011;32190;49.112;8.598;2022-08-19T01:51:59;3.95;;;3.65;;
32146;SDS011;32190;49.112;8.598;2022-08-19T01:57:56;4.63;;;4.22;;
32146;SDS011;32190;49.112;8.598;2022-08-19T02:04:01;4.90;;;4.28;;
32146;SDS011;32190;49.112;8.598;2022-08-19T02:10:00;4.28;;;3.97;;
32146;SDS011;32190;49.112;8.598;2022-08-19T02:15:58;4.60;;;4.20;;
32146;SDS011;32190;49.112;8.598;2022-08-19T02:21:58;5.15;;;4.65;;
32146;SDS011;32190;49.112;8.598;2022-08-19T02:27:49;4.63;;;4.30;;
32146;SDS011;32190;49.112;8.598;2022-08-19T02:33:57;3.95;;;3.65;;
32146;SDS011;32190;49.112;8.598;2022-08-19T02:40:02;3.88;;;3.53;;
32146;SDS011;32190;49.112;8.598;2022-08-19T02:45:53;4.22;;;3.90;;
32146;SDS011;32190;49.112;8.598;2022-08-19T02:51:45;3.95;;;3.65;;
32146;SDS011;32190;49.112;8.598;2022-08-19T02:57:44;3.90;;;3.25;;
32146;SDS011;32190;49.112;8.598;2022-08-19T03:03:44;4.60;;;4.22;;
32146;SDS011;32190;49.112;8.598;2022-08-19T03:09:52;5.03;;;4.53;;
32146;SDS011;32190;49.112;8.598;2022-08-19T03:16:19;5.13;;;4.68;;
32146;SDS011;32190;49.112;8.598;2022-08-19T03:22:09;6.60;;;6.00;;
32146;SDS011;32190;49.112;8.598;2022-08-19T03:28:00;5.00;;;4.50;;
32146;SDS011;32190;49.112;8.598;2022-08-19T03:34:03;6.10;;;5.60;;
32146;SDS011;32190;49.112;8.598;2022-08-19T03:39:58;5.25;;;4.75;;
32146;SDS011;32190;49.112;8.598;2022-08-19T03:51:57;4.38;;;3.97;;
32146;SDS011;32190;49.112;8.598;2022-08-19T03:57:50;5.40;;;4.90;;
32146;SDS011;32190;49.112;8.598;2022-08-19T04:03:59;5.53;;;4.88;;
32146;SDS011;32190;49.112;8.598;2022-08-19T04:09:50;5.35;;;4.90;;
32146;SDS011;32190;49.112;8.598;2022-08-19T04:15:42;6.45;;;5.95;;
32146;SDS011;32190;49.112;8.598;2022-08-19T04:22:09;5.32;;;4.93;;
32146;SDS011;32190;49.112;8.598;2022-08-19T04:28:01;6.28;;;5.68;;
32146;SDS011;32190;49.112;8.598;2022-08-19T04:33:52;4.55;;;4.15;;
32146;SDS011;32190;49.112;8.598;2022-08-19T04:39:48;3.97;;;3.67;;
32146;SDS011;32190;49.112;8.598;2022-08-19T04:51:59;4.68;;;4.22;;
32146;SDS011;32190;49.112;8.598;2022-08-19T04:57:53;5.57;;;5.13;;
32146;SDS011;32190;49.112;8.598;2022-08-19T05:03:47;5.28;;;4.85;;
32146;SDS011;32190;49.112;8.598;2022-08-19T05:09:41;5.80;;;5.30;;
32146;SDS011;32190;49.112;8.598;2022-08-19T05:15:35;5.72;;;5.28;;
32146;SDS011;32190;49.112;8.598;2022-08-19T05:21:26;4.53;;;4.20;;
32146;SDS011;32190;49.112;8.598;2022-08-19T05:27:35;6.75;;;6.10;;
32146;SDS011;32190;49.112;8.598;2022-08-19T05:33:26;5.28;;;4.63;;
32146;SDS011;32190;49.112;8.598;2022-08-19T05:39:20;4.05;;;3.75;;
32146;SDS011;32190;49.112;8.598;2022-08-19T05:45:11;5.72;;;4.93;;
32146;SDS011;32190;49.112;8.598;2022-08-19T05:51:05;4.72;;;4.32;;
32146;SDS011;32190;49.112;8.598;2022-08-19T05:56:56;3.97;;;3.65;;
32146;SDS011;32190;49.112;8.598;2022-08-19T06:02:47;4.40;;;4.00;;
32146;SDS011;32190;49.112;8.598;2022-08-19T06:08:37;4.82;;;4.43;;
32146;SDS011;32190;49.112;8.598;2022-08-19T06:14:29;3.33;;;3.08;;
32146;SDS011;32190;49.112;8.598;2022-08-19T06:20:22;5.95;;;5.00;;
32146;SDS011;32190;49.112;8.598;2022-08-19T06:26:14;3.42;;;3.22;;
32146;SDS011;32190;49.112;8.598;2022-08-19T06:32:05;5.00;;;4.50;;
32146;SDS011;32190;49.112;8.598;2022-08-19T06:37:56;4.75;;;4.35;;
32146;SDS011;32190;49.112;8.598;2022-08-19T06:43:47;4.35;;;3.90;;
32146;SDS011;32190;49.112;8.598;2022-08-19T06:49:38;5.00;;;4.30;;
32146;SDS011;32190;49.112;8.598;2022-08-19T06:55:29;5.32;;;4.68;;
32146;SDS011;32190;49.112;8.598;2022-08-19T07:01:20;5.47;;;4.90;;
32146;SDS011;32190;49.112;8.598;2022-08-19T07:07:11;5.05;;;4.65;;
32146;SDS011;32190;49.112;8.598;2022-08-19T07:13:04;4.82;;;4.43;;
32146;SDS011;32190;49.112;8.598;2022-08-19T07:18:55;5.13;;;4.68;;
32146;SDS011;32190;49.112;8.598;2022-08-19T07:24:46;4.35;;;4.05;;
32146;SDS011;32190;49.112;8.598;2022-08-19T07:30:37;4.13;;;3.83;;
32146;SDS011;32190;49.112;8.598;2022-08-19T07:36:35;5.43;;;4.22;;
32146;SDS011;32190;49.112;8.598;2022-08-19T07:49:05;4.60;;;4.00;;
32146;SDS011;32190;49.112;8.598;2022-08-19T07:54:57;3.47;;;3.15;;
32146;SDS011;32190;49.112;8.598;2022-08-19T08:00:53;4.43;;;4.00;;
32146;SDS011;32190;49.112;8.598;2022-08-19T08:06:44;4.63;;;4.22;;
32146;SDS011;32190;49.112;8.598;2022-08-19T08:12:55;3.60;;;3.40;;
32146;SDS011;32190;49.112;8.598;2022-08-19T08:18:46;3.70;;;3.25;;
32146;SDS011;32190;49.112;8.598;2022-08-19T08:24:37;4.85;;;4.32;;
32146;SDS011;32190;49.112;8.598;2022-08-19T08:30:28;3.70;;;3.40;;
32146;SDS011;32190;49.112;8.598;2022-08-19T08:36:20;3.95;;;3.65;;
32146;SDS011;32190;49.112;8.598;2022-08-19T08:42:20;4.32;;;4.03;;
32146;SDS011;32190;49.112;8.598;2022-08-19T08:48:21;3.75;;;3.47;;
32146;SDS011;32190;49.112;8.598;2022-08-19T08:54:18;3.25;;;3.03;;
32146;SDS011;32190;49.112;8.598;2022-08-19T09:00:19;3.20;;;3.00;;
32146;SDS011;32190;49.112;8.598;2022-08-19T09:18:13;4.32;;;3.38;;
32146;SDS011;32190;49.112;8.598;2022-08-19T09:24:06;2.67;;;2.42;;
32146;SDS011;32190;49.112;8.598;2022-08-19T09:29:56;2.83;;;2.63;;
32146;SDS011;32190;49.112;8.598;2022-08-19T09:35:47;3.28;;;3.08;;
32146;SDS011;32190;49.112;8.598;2022-08-19T09:41:38;2.33;;;2.22;;
32146;SDS011;32190;49.112;8.598;2022-08-19T09:47:28;2.92;;;2.58;;
32146;SDS011;32190;49.112;8.598;2022-08-19T09:53:19;2.25;;;1.98;;
32146;SDS011;32190;49.112;8.598;2022-08-19T09:59:13;4.50;;;2.42;;
32146;SDS011;32190;49.112;8.598;2022-08-19T10:05:03;1.75;;;1.65;;
32146;SDS011;32190;49.112;8.598;2022-08-19T10:11:13;2.13;;;2.03;;
32146;SDS011;32190;49.112;8.598;2022-08-19T10:17:05;1.98;;;1.83;;
32146;SDS011;32190;49.112;8.598;2022-08-19T10:22:57;1.95;;;1.85;;
32146;SDS011;32190;49.112;8.598;2022-08-19T10:28:49;2.60;;;2.40;;
32146;SDS011;32190;49.112;8.598;2022-08-19T10:34:39;2.40;;;1.92;;
32146;SDS011;32190;49.112;8.598;2022-08-19T10:40:30;2.10;;;2.00;;
32146;SDS011;32190;49.112;8.598;2022-08-19T10:46:22;2.45;;;2.22;;
32146;SDS011;32190;49.112;8.598;2022-08-19T10:52:13;2.33;;;1.83;;
32146;SDS011;32190;49.112;8.598;2022-08-19T10:58:23;3.38;;;2.25;;
32146;SDS011;32190;49.112;8.598;2022-08-19T11:04:15;2.58;;;2.45;;
32146;SDS011;32190;49.112;8.598;2022-08-19T11:10:08;2.20;;;2.10;;
32146;SDS011;32190;49.112;8.598;2022-08-19T11:16:02;2.88;;;2.33;;
32146;SDS011;32190;49.112;8.598;2022-08-19T11:21:57;2.10;;;2.00;;
32146;SDS011;32190;49.112;8.598;2022-08-19T11:27:51;2.00;;;1.90;;
32146;SDS011;32190;49.112;8.598;2022-08-19T11:33:41;2.53;;;2.03;;
32146;SDS011;32190;49.112;8.598;2022-08-19T11:39:33;2.00;;;1.90;;
32146;SDS011;32190;49.112;8.598;2022-08-19T11:45:26;2.58;;;2.13;;
32146;SDS011;32190;49.112;8.598;2022-08-19T11:51:23;2.28;;;1.70;;
32146;SDS011;32190;49.112;8.598;2022-08-19T11:57:17;1.80;;;1.70;;
32146;SDS011;32190;49.112;8.598;2022-08-19T12:03:12;2.97;;;2.78;;
32146;SDS011;32190;49.112;8.598;2022-08-19T12:09:27;2.05;;;1.95;;
32146;SDS011;32190;49.112;8.598;2022-08-19T12:15:26;2.03;;;1.92;;
32146;SDS011;32190;49.112;8.598;2022-08-19T12:21:27;2.60;;;2.40;;
32146;SDS011;32190;49.112;8.598;2022-08-19T12:27:18;1.85;;;1.75;;
32146;SDS011;32190;49.112;8.598;2022-08-19T12:33:26;1.35;;;1.35;;
32146;SDS011;32190;49.112;8.598;2022-08-19T12:39:21;2.08;;;1.98;;
32146;SDS011;32190;49.112;8.598;2022-08-19T12:45:14;1.73;;;1.63;;
32146;SDS011;32190;49.112;8.598;2022-08-19T12:51:11;2.00;;;1.77;;
32146;SDS011;32190;49.112;8.598;2022-08-19T12:57:05;1.63;;;1.52;;
32146;SDS011;32190;49.112;8.598;2022-08-19T13:02:57;1.75;;;1.65;;
32146;SDS011;32190;49.112;8.598;2022-08-19T13:08:49;2.15;;;2.05;;
32146;SDS011;32190;49.112;8.598;2022-08-19T13:56:54;2.80;;;2.65;;
32146;SDS011;32190;49.112;8.598;2022-08-19T14:02:46;3.00;;;2.80;;
32146;SDS011;32190;49.112;8.598;2022-08-19T14:08:37;2.83;;;2.63;;
32146;SDS011;32190;49.112;8.598;2022-08-19T14:14:29;2.13;;;1.80;;
32146;SDS011;32190;49.112;8.598;2022-08-19T14:20:20;3.03;;;2.22;;
32146;SDS011;32190;49.112;8.598;2022-08-19T14:26:12;2.85;;;2.65;;
32146;SDS011;32190;49.112;8.598;2022-08-19T14:32:05;2.25;;;2.15;;
32146;SDS011;32190;49.112;8.598;2022-08-19T14:37:55;1.80;;;1.70;;
32146;SDS011;32190;49.112;8.598;2022-08-19T14:43:51;1.17;;;1.17;;
32146;SDS011;32190;49.112;8.598;2022-08-19T14:49:43;1.40;;;1.40;;
32146;SDS011;32190;49.112;8.598;2022-08-19T14:55:36;1.88;;;1.27;;
32146;SDS011;32190;49.112;8.598;2022-08-19T15:01:30;1.15;;;1.15;;
32146;SDS011;32190;49.112;8.598;2022-08-19T15:07:23;1.33;;;1.25;;
32146;SDS011;32190;49.112;8.598;2022-08-19T15:13:14;1.05;;;1.05;;
32146;SDS011;32190;49.112;8.598;2022-08-19T15:19:04;1.40;;;1.30;;
32146;SDS011;32190;49.112;8.598;2022-08-19T15:24:55;10.35;;;1.40;;
32146;SDS011;32190;49.112;8.598;2022-08-19T15:30:46;1.40;;;1.40;;
32146;SDS011;32190;49.112;8.598;2022-08-19T15:36:36;1.40;;;1.38;;
32146;SDS011;32190;49.112;8.598;2022-08-19T15:42:36;2.15;;;2.05;;
32146;SDS011;32190;49.112;8.598;2022-08-19T15:48:33;1.73;;;1.65;;
32146;SDS011;32190;49.112;8.598;2022-08-19T15:54:24;1.60;;;1.50;;
32146;SDS011;32190;49.112;8.598;2022-08-19T16:00:15;1.70;;;1.60;;
32146;SDS011;32190;49.112;8.598;2022-08-19T16:12:44;1.08;;;1.08;;
32146;SDS011;32190;49.112;8.598;2022-08-19T16:18:34;1.08;;;1.08;;
32146;SDS011;32190;49.112;8.598;2022-08-19T16:24:27;1.45;;;1.35;;
32146;SDS011;32190;49.112;8.598;2022-08-19T16:30:18;1.17;;;1.17;;
32146;SDS011;32190;49.112;8.598;2022-08-19T16:36:08;1.30;;;1.30;;
32146;SDS011;32190;49.112;8.598;2022-08-19T16:41:59;1.15;;;1.10;;
32146;SDS011;32190;49.112;8.598;2022-08-19T16:47:50;1.38;;;1.38;;
32146;SDS011;32190;49.112;8.598;2022-08-19T16:53:41;1.33;;;1.33;;
32146;SDS011;32190;49.112;8.598;2022-08-19T16:59:35;1.40;;;1.40;;
32146;SDS011;32190;49.112;8.598;2022-08-19T17:05:26;1.20;;;1.20;;
32146;SDS011;32190;49.112;8.598;2022-08-19T17:11:17;1.10;;;1.10;;
32146;SDS011;32190;49.112;8.598;2022-08-19T17:17:08;0.98;;;0.98;;
32146;SDS011;32190;49.112;8.598;2022-08-19T17:23:01;0.90;;;0.90;;
32146;SDS011;32190;49.112;8.598;2022-08-19T17:28:56;0.88;;;0.88;;
32146;SDS011;32190;49.112;8.598;2022-08-19T17:34:50;1.27;;;1.27;;
32146;SDS011;32190;49.112;8.598;2022-08-19T17:40:49;0.98;;;0.98;;
32146;SDS011;32190;49.112;8.598;2022-08-19T17:46:40;0.73;;;0.73;;
32146;SDS011;32190;49.112;8.598;2022-08-19T17:52:31;0.95;;;0.85;;
32146;SDS011;32190;49.112;8.598;2022-08-19T17:58:22;0.90;;;0.90;;
32146;SDS011;32190;49.112;8.598;2022-08-19T18:04:12;0.85;;;0.85;;
32146;SDS011;32190;49.112;8.598;2022-08-19T18:10:12;0.90;;;0.90;;
32146;SDS011;32190;49.112;8.598;2022-08-19T18:16:20;1.10;;;1.10;;
32146;SDS011;32190;49.112;8.598;2022-08-19T18:28:38;1.02;;;1.00;;
32146;SDS011;32190;49.112;8.598;2022-08-19T18:34:35;0.70;;;0.70;;
32146;SDS011;32190;49.112;8.598;2022-08-19T18:40:48;0.93;;;0.93;;
32146;SDS011;32190;49.112;8.598;2022-08-19T18:46:58;0.95;;;0.90;;
32146;SDS011;32190;49.112;8.598;2022-08-19T18:53:44;0.90;;;0.90;;
32146;SDS011;32190;49.112;8.598;2022-08-19T19:25:01;0.95;;;0.95;;
32146;SDS011;32190;49.112;8.598;2022-08-19T19:43:54;1.30;;;1.20;;
32146;SDS011;32190;49.112;8.598;2022-08-19T19:50:13;2.28;;;1.05;;
32146;SDS011;32190;49.112;8.598;2022-08-19T19:56:38;1.45;;;1.35;;
32146;SDS011;32190;49.112;8.598;2022-08-19T20:02:48;1.08;;;1.05;;
32146;SDS011;32190;49.112;8.598;2022-08-19T20:09:23;1.25;;;1.25;;
32146;SDS011;32190;49.112;8.598;2022-08-19T21:06:26;1.02;;;1.02;;
32146;SDS011;32190;49.112;8.598;2022-08-19T21:12:55;1.25;;;1.25;;
32146;SDS011;32190;49.112;8.598;2022-08-19T21:18:45;1.33;;;1.23;;
32146;SDS011;32190;49.112;8.598;2022-08-19T21:24:37;1.38;;;1.27;;
32146;SDS011;32190;49.112;8.598;2022-08-19T21:30:59;1.02;;;1.02;;
32146;SDS011;32190;49.112;8.598;2022-08-19T21:36:53;0.75;;;0.75;;
32146;SDS011;32190;49.112;8.598;2022-08-19T21:42:44;0.95;;;0.95;;
32146;SDS011;32190;49.112;8.598;2022-08-19T21:48:35;1.85;;;0.80;;
32146;SDS011;32190;49.112;8.598;2022-08-19T21:54:26;1.08;;;1.08;;
32146;SDS011;32190;49.112;8.598;2022-08-19T22:00:19;0.80;;;0.80;;
32146;SDS011;32190;49.112;8.598;2022-08-19T22:06:11;0.80;;;0.80;;
32146;SDS011;32190;49.112;8.598;2022-08-19T22:12:26;1.40;;;1.08;;
32146;SDS011;32190;49.112;8.598;2022-08-19T22:18:22;0.50;;;0.50;;
32146;SDS011;32190;49.112;8.598;2022-08-19T22:24:13;2.63;;;0.95;;
32146;SDS011;32190;49.112;8.598;2022-08-19T22:30:07;0.47;;;0.47;;
32146;SDS011;32190;49.112;8.598;2022-08-19T22:41:50;0.45;;;0.45;;
32146;SDS011;32190;49.112;8.598;2022-08-19T22:47:41;2.35;;;0.50;;
32146;SDS011;32190;49.112;8.598;2022-08-19T22:53:35;0.50;;;0.50;;
32146;SDS011;32190;49.112;8.598;2022-08-19T22:59:27;0.45;;;0.45;;
32146;SDS011;32190;49.112;8.598;2022-08-19T23:05:19;0.30;;;0.30;;
32146;SDS011;32190;49.112;8.598;2022-08-19T23:11:10;0.32;;;0.32;;
32146;SDS011;32190;49.112;8.598;2022-08-19T23:17:02;0.32;;;0.22;;
32146;SDS011;32190;49.112;8.598;2022-08-19T23:22:54;0.25;;;0.25;;
32146;SDS011;32190;49.112;8.598;2022-08-19T23:28:45;0.30;;;0.30;;
32146;SDS011;32190;49.112;8.598;2022-08-19T23:34:54;0.30;;;0.30;;
32146;SDS011;32190;49.112;8.598;2022-08-19T23:40:45;0.30;;;0.30;;
32146;SDS011;32190;49.112;8.598;2022-08-19T23:46:36;0.30;;;0.30;;
32146;SDS011;32190;49.112;8.598;2022-08-19T23:52:28;0.20;;;0.20;;
32146;SDS011;32190;49.112;8.598;2022-08-19T23:58:18;0.25;;;0.25;;
